createdAt,value
2024-03-01T04:15:26.839Z,18.49
2024-03-01T04:16:40.456Z,18.47
2024-03-01T04:17:27.061Z,18.50
2024-03-01T04:18:27.211Z,18.50
2024-03-01T04:19:27.395Z,18.54
2024-03-01T04:20:27.414Z,18.55
2024-03-01T04:21:28.498Z,18.59
2024-03-01T04:22:27.854Z,18.62
2024-03-01T04:23:27.803Z,18.65
2024-03-01T04:24:27.909Z,18.68
2024-03-01T04:25:28.175Z,18.72
2024-03-01T04:26:28.215Z,18.74
2024-03-01T04:27:28.308Z,18.77
2024-03-01T04:28:28.455Z,18.79
2024-03-01T04:29:28.547Z,18.80
2024-03-01T04:30:28.679Z,18.80
2024-03-01T04:31:34.562Z,18.83
2024-03-01T04:32:28.976Z,18.84
2024-03-01T04:33:29.024Z,18.86
2024-03-01T04:34:29.189Z,18.86
2024-03-01T04:35:29.267Z,18.86
2024-03-01T04:36:29.452Z,18.87
2024-03-01T04:37:29.595Z,18.87
2024-03-01T04:38:29.671Z,18.90
2024-03-01T04:39:29.763Z,18.90
2024-03-01T04:40:29.964Z,18.90
2024-03-01T04:41:30.078Z,18.91
2024-03-01T04:42:30.194Z,18.92
2024-03-01T04:43:30.465Z,18.94
2024-03-01T04:44:30.425Z,18.94
2024-03-01T04:45:30.579Z,18.92
2024-03-01T04:46:30.737Z,18.95
2024-03-01T04:47:30.879Z,18.94
2024-03-01T04:48:31.016Z,18.97
2024-03-01T04:49:31.152Z,18.95
2024-03-01T04:50:31.237Z,18.95
2024-03-01T04:51:31.304Z,18.95
2024-03-01T04:52:31.469Z,18.97
2024-03-01T04:53:31.585Z,18.97
2024-03-01T04:54:31.763Z,18.97
2024-03-01T04:55:31.987Z,18.97
2024-03-01T04:56:32.026Z,18.98
2024-03-01T04:57:32.149Z,18.98
2024-03-01T04:58:32.389Z,18.98
2024-03-01T04:59:32.471Z,18.98
2024-03-01T05:00:32.598Z,18.98
2024-03-01T05:01:32.752Z,18.99
2024-03-01T05:02:32.768Z,18.98
2024-03-01T05:03:33.022Z,18.98
2024-03-01T05:04:33.080Z,18.99
2024-03-01T05:05:33.171Z,18.99
2024-03-01T05:06:33.314Z,18.99
2024-03-01T05:07:33.573Z,18.99
2024-03-01T05:08:33.579Z,19.01
2024-03-01T05:09:33.671Z,19.01
2024-03-01T05:10:33.953Z,19.01
2024-03-01T05:11:33.995Z,18.98
2024-03-01T05:12:34.148Z,18.99
2024-03-01T05:13:34.364Z,19.01
2024-03-01T05:14:34.390Z,18.99
2024-03-01T05:15:34.640Z,18.99
2024-03-01T05:16:34.748Z,18.99
2024-03-01T05:17:34.785Z,18.99
2024-03-01T05:18:34.889Z,18.99
2024-03-01T05:19:35.019Z,19.01
2024-03-01T05:20:35.116Z,18.99
2024-03-01T05:21:35.258Z,19.02
2024-03-01T05:22:35.386Z,19.01
2024-03-01T05:23:35.557Z,19.01
2024-03-01T05:24:35.611Z,19.01
2024-03-01T05:25:35.931Z,18.99
2024-03-01T05:26:35.948Z,18.98
2024-03-01T05:27:36.052Z,18.99
2024-03-01T05:28:36.313Z,18.98
2024-03-01T05:29:36.334Z,18.98
2024-03-01T05:30:46.682Z,19.01
2024-03-01T05:31:37.712Z,19.01
2024-03-01T05:32:36.764Z,19.02
2024-03-01T05:33:36.895Z,19.05
2024-03-01T05:34:37.127Z,18.99
2024-03-01T05:35:37.254Z,18.99
2024-03-01T05:36:37.310Z,19.01
2024-03-01T05:37:37.473Z,19.01
2024-03-01T05:38:37.574Z,19.02
2024-03-01T05:39:37.712Z,19.01
2024-03-01T05:40:45.868Z,19.01
2024-03-01T05:41:39.974Z,19.01
2024-03-01T05:42:38.081Z,18.99
2024-03-01T05:43:38.304Z,18.98
2024-03-01T05:44:38.409Z,19.01
2024-03-01T05:45:38.487Z,19.01
2024-03-01T05:46:39.682Z,19.02
2024-03-01T05:47:38.817Z,19.01
2024-03-01T05:48:38.929Z,19.01
2024-03-01T05:49:39.018Z,18.99
2024-03-01T05:50:39.143Z,19.02
2024-03-01T05:51:40.308Z,19.01
2024-03-01T05:52:39.443Z,19.01
2024-03-01T05:53:39.577Z,19.01
2024-03-01T05:54:40.643Z,19.01
2024-03-01T05:55:39.859Z,19.01
2024-03-01T05:56:39.952Z,18.99
2024-03-01T05:57:40.067Z,18.99
2024-03-01T05:58:40.277Z,18.99
2024-03-01T05:59:40.293Z,18.99
2024-03-01T06:00:40.392Z,18.99
2024-03-01T06:01:41.606Z,18.99
2024-03-01T06:02:40.669Z,18.99
2024-03-01T06:03:40.820Z,18.98
2024-03-01T06:04:40.973Z,18.99
2024-03-01T06:05:41.031Z,18.99
2024-03-01T06:06:41.225Z,18.99
2024-03-01T06:07:41.408Z,18.99
2024-03-01T06:08:42.477Z,18.99
2024-03-01T06:09:41.609Z,18.99
2024-03-01T06:10:41.833Z,19.01
2024-03-01T06:12:59.278Z,18.99
2024-03-01T06:13:57.557Z,18.99
2024-03-01T06:14:57.719Z,19.01
2024-03-01T06:15:57.921Z,18.98
2024-03-01T06:16:58.003Z,19.01
2024-03-01T06:17:58.243Z,18.99
2024-03-01T06:19:01.810Z,19.01
2024-03-01T06:19:58.372Z,18.99
2024-03-01T06:20:58.484Z,19.01
2024-03-01T06:21:58.598Z,19.01
2024-03-01T06:22:58.727Z,19.01
2024-03-01T06:23:58.824Z,18.99
2024-03-01T06:24:59.099Z,18.99
2024-03-01T06:25:59.238Z,18.99
2024-03-01T06:26:59.236Z,19.01
2024-03-01T06:27:59.376Z,19.02
2024-03-01T06:28:59.463Z,19.02
2024-03-01T06:29:59.605Z,19.02
2024-03-01T06:30:59.800Z,19.01
2024-03-01T06:31:59.997Z,19.01
2024-03-01T06:33:00.039Z,19.02
2024-03-01T06:34:00.168Z,19.05
2024-03-01T06:35:00.248Z,19.02
2024-03-01T06:36:00.384Z,19.05
2024-03-01T06:37:00.693Z,19.02
2024-03-01T06:38:01.717Z,19.02
2024-03-01T06:39:00.785Z,19.05
2024-03-01T06:40:00.931Z,19.02
2024-03-01T06:41:01.002Z,19.05
2024-03-01T06:42:02.246Z,19.05
2024-03-01T06:43:01.230Z,19.02
2024-03-01T06:44:01.382Z,19.06
2024-03-01T06:45:01.469Z,19.06
2024-03-01T06:46:02.000Z,19.06
2024-03-01T06:47:04.226Z,19.06
2024-03-01T06:48:02.052Z,19.06
2024-03-01T06:49:02.167Z,19.06
2024-03-01T06:50:02.292Z,19.05
2024-03-01T06:51:02.442Z,19.06
2024-03-01T06:52:02.428Z,19.08
2024-03-01T06:53:02.790Z,19.08
2024-03-01T06:54:02.868Z,19.06
2024-03-01T06:55:03.092Z,19.10
2024-03-01T06:56:02.883Z,19.08
2024-03-01T06:57:03.278Z,19.06
2024-03-01T06:58:04.121Z,19.08
2024-03-01T06:59:03.907Z,19.06
2024-03-01T07:00:03.704Z,19.06
2024-03-01T07:01:06.297Z,19.06
2024-03-01T07:02:03.906Z,19.08
2024-03-01T07:03:04.016Z,19.08
2024-03-01T07:04:04.409Z,19.10
2024-03-01T07:05:04.123Z,19.11
2024-03-01T07:06:04.282Z,19.10
2024-03-01T07:07:04.424Z,19.11
2024-03-01T07:08:04.621Z,19.11
2024-03-01T07:09:04.642Z,19.11
2024-03-01T07:10:04.813Z,19.13
2024-03-01T07:11:05.092Z,19.13
2024-03-01T07:12:05.052Z,19.11
2024-03-01T07:13:06.141Z,19.13
2024-03-01T07:14:05.439Z,19.14
2024-03-01T07:15:05.432Z,19.14
2024-03-01T07:16:05.683Z,19.14
2024-03-01T07:17:05.774Z,19.15
2024-03-01T07:18:05.857Z,19.14
2024-03-01T07:19:06.117Z,19.17
2024-03-01T07:20:06.116Z,19.15
2024-03-01T07:21:06.228Z,19.15
2024-03-01T07:22:06.464Z,19.17
2024-03-01T07:23:08.844Z,19.17
2024-03-01T07:24:06.584Z,19.17
2024-03-01T07:25:06.757Z,19.17
2024-03-01T07:26:07.525Z,19.18
2024-03-01T07:27:07.060Z,19.17
2024-03-01T07:28:07.192Z,19.18
2024-03-01T07:29:08.162Z,19.17
2024-03-01T07:30:07.423Z,19.17
2024-03-01T07:31:07.613Z,19.18
2024-03-01T07:32:07.695Z,19.20
2024-03-01T07:33:08.954Z,19.20
2024-03-01T07:34:08.131Z,19.18
2024-03-01T07:35:08.128Z,19.20
2024-03-01T07:36:08.165Z,19.18
2024-03-01T07:37:08.336Z,19.20
2024-03-01T07:38:08.453Z,19.21
2024-03-01T07:39:08.495Z,19.21
2024-03-01T07:40:09.929Z,19.23
2024-03-01T07:41:10.864Z,19.23
2024-03-01T07:42:08.943Z,19.24
2024-03-01T07:43:09.369Z,19.24
2024-03-01T07:44:09.338Z,19.24
2024-03-01T07:45:09.422Z,19.25
2024-03-01T07:46:09.761Z,19.25
2024-03-01T07:47:09.673Z,19.29
2024-03-01T07:52:03.978Z,19.29
2024-03-01T07:53:15.201Z,19.29
2024-03-01T07:54:12.131Z,19.29
2024-03-01T07:55:13.289Z,19.29
2024-03-01T07:56:13.743Z,19.29
2024-03-01T07:57:12.299Z,19.29
2024-03-01T07:58:15.204Z,19.31
2024-03-01T07:59:14.190Z,19.32
2024-03-01T08:00:13.430Z,19.32
2024-03-01T08:01:12.423Z,19.32
2024-03-01T08:02:14.525Z,19.32
2024-03-01T08:03:12.597Z,19.32
2024-03-01T08:04:14.574Z,19.32
2024-03-01T08:08:01.849Z,19.35
2024-03-01T08:09:13.451Z,19.35
2024-03-01T08:10:12.318Z,19.35
2024-03-01T08:11:12.653Z,19.35
2024-03-01T08:12:12.779Z,19.38
2024-03-01T08:13:07.981Z,19.36
2024-03-01T08:14:15.888Z,19.36
2024-03-01T08:15:14.055Z,19.38
2024-03-01T08:16:13.320Z,19.38
2024-03-01T08:17:14.338Z,19.36
2024-03-01T08:18:14.283Z,19.38
2024-03-01T08:19:13.496Z,19.40
2024-03-01T08:20:17.242Z,19.40
2024-03-01T08:21:14.561Z,19.40
2024-03-01T08:22:13.987Z,19.40
2024-03-01T08:23:15.837Z,19.40
2024-03-01T08:24:17.108Z,19.42
2024-03-01T08:25:15.935Z,19.42
2024-03-01T08:26:17.983Z,19.42
2024-03-01T08:27:16.012Z,19.42
2024-03-01T08:28:16.236Z,19.43
2024-03-01T08:29:16.913Z,19.43
2024-03-01T08:30:11.374Z,19.43
2024-03-01T08:31:03.425Z,19.46
2024-03-01T08:32:07.367Z,19.47
2024-03-01T08:33:04.000Z,19.46
2024-03-01T08:34:04.451Z,19.48
2024-03-01T08:35:04.938Z,19.47
2024-03-01T08:36:04.562Z,19.50
2024-03-01T08:37:04.113Z,19.50
2024-03-01T08:38:05.197Z,19.51
2024-03-01T08:39:04.669Z,19.50
2024-03-01T08:40:04.820Z,19.51
2024-03-01T08:41:04.505Z,19.51
2024-03-01T08:42:06.018Z,19.53
2024-03-01T08:43:08.848Z,19.51
2024-03-01T08:44:05.330Z,19.53
2024-03-01T08:45:05.043Z,19.54
2024-03-01T08:46:05.458Z,19.55
2024-03-01T08:47:05.367Z,19.54
2024-03-01T08:48:06.162Z,19.55
2024-03-01T08:49:07.050Z,19.55
2024-03-01T08:50:06.001Z,19.58
2024-03-01T08:51:06.876Z,19.60
2024-03-01T08:52:06.896Z,19.60
2024-03-01T08:53:07.022Z,19.63
2024-03-01T08:54:06.224Z,19.65
2024-03-01T08:55:06.796Z,19.65
2024-03-01T08:56:06.519Z,19.66
2024-03-01T08:57:07.632Z,19.68
2024-03-01T08:58:07.685Z,19.66
2024-03-01T08:59:06.836Z,19.68
2024-03-01T09:00:08.863Z,19.68
2024-03-01T09:01:08.082Z,19.69
2024-03-01T09:02:07.382Z,19.69
2024-03-01T09:03:08.265Z,19.69
2024-03-01T09:04:11.238Z,19.72
2024-03-01T09:05:07.684Z,19.73
2024-03-01T09:06:07.592Z,19.73
2024-03-01T09:07:07.998Z,19.73
2024-03-01T09:08:08.051Z,19.73
2024-03-01T09:09:07.978Z,19.75
2024-03-01T09:10:08.075Z,19.76
2024-03-01T09:11:08.228Z,19.78
2024-03-01T09:12:08.341Z,19.79
2024-03-01T09:13:10.818Z,19.79
2024-03-01T09:14:10.408Z,19.80
2024-03-01T09:15:08.711Z,19.80
2024-03-01T09:16:08.963Z,19.83
2024-03-01T09:17:09.175Z,19.83
2024-03-01T09:18:10.345Z,19.83
2024-03-01T09:19:09.367Z,19.84
2024-03-01T09:20:10.463Z,19.86
2024-03-01T09:21:09.522Z,19.87
2024-03-01T09:22:09.795Z,19.87
2024-03-01T09:23:09.841Z,19.88
2024-03-01T09:24:10.084Z,19.90
2024-03-01T09:25:11.054Z,19.90
2024-03-01T09:26:14.700Z,19.91
2024-03-01T09:27:11.747Z,19.91
2024-03-01T09:28:11.953Z,19.93
2024-03-01T09:29:13.527Z,19.93
2024-03-01T09:30:11.879Z,19.93
2024-03-01T09:31:10.977Z,19.94
2024-03-01T09:32:11.960Z,19.94
2024-03-01T09:33:12.179Z,19.95
2024-03-01T09:34:11.483Z,19.97
2024-03-01T09:35:11.793Z,19.94
2024-03-01T09:36:12.946Z,19.95
2024-03-01T09:37:11.926Z,19.95
2024-03-01T09:38:13.018Z,19.94
2024-03-01T09:39:11.958Z,19.95
2024-03-01T09:40:13.410Z,19.95
2024-03-01T09:41:14.150Z,19.97
2024-03-01T09:42:13.476Z,19.97
2024-03-01T09:43:13.577Z,19.97
2024-03-01T09:44:14.412Z,19.98
2024-03-01T09:45:13.605Z,19.97
2024-03-01T09:46:13.067Z,19.98
2024-03-01T09:47:14.876Z,20.00
2024-03-01T09:48:13.268Z,20.00
2024-03-01T09:49:13.509Z,20.00
2024-03-01T09:50:17.664Z,20.02
2024-03-01T09:51:14.784Z,20.03
2024-03-01T09:52:17.235Z,20.03
2024-03-01T09:53:14.998Z,20.03
2024-03-01T09:54:14.875Z,20.03
2024-03-01T09:55:15.206Z,20.05
2024-03-01T09:56:14.828Z,20.05
2024-03-01T09:57:15.469Z,20.03
2024-03-01T09:58:15.586Z,20.03
2024-03-01T09:59:15.243Z,20.05
2024-03-01T10:00:16.555Z,20.05
2024-03-01T10:01:14.882Z,20.03
2024-03-01T10:05:08.797Z,20.05
2024-03-01T10:06:21.809Z,20.05
2024-03-01T10:07:16.974Z,20.05
2024-03-01T10:08:08.966Z,20.03
2024-03-01T10:09:09.300Z,20.05
2024-03-01T10:10:09.354Z,20.05
2024-03-01T10:11:09.350Z,20.06
2024-03-01T10:12:09.512Z,20.05
2024-03-01T10:13:10.724Z,20.06
2024-03-01T10:14:10.791Z,20.08
2024-03-01T10:15:11.712Z,20.08
2024-03-01T10:16:11.598Z,20.08
2024-03-01T10:17:11.746Z,20.09
2024-03-01T10:18:10.287Z,20.09
2024-03-01T10:30:11.763Z,19.93
2024-03-01T10:31:25.630Z,19.90
2024-03-01T10:32:26.076Z,19.91
2024-03-01T10:33:24.499Z,19.90
2024-03-01T10:34:25.466Z,19.93
2024-03-01T10:38:20.029Z,20.00
2024-03-01T10:42:17.196Z,20.03
2024-03-01T10:46:21.847Z,20.06
2024-03-01T10:50:22.516Z,20.09
2024-03-01T10:54:22.492Z,20.09
2024-03-01T10:58:19.282Z,20.10
2024-03-01T11:02:18.920Z,20.08
2024-03-01T11:06:22.980Z,20.08
2024-03-01T11:10:13.272Z,20.09
2024-03-01T11:11:26.800Z,20.08
2024-03-01T11:12:25.368Z,20.08
2024-03-01T11:13:25.425Z,20.09
2024-03-01T11:14:25.166Z,20.09
2024-03-01T11:15:27.931Z,20.09
2024-03-01T11:16:25.169Z,20.09
2024-03-01T11:17:26.632Z,20.09
2024-03-01T11:18:25.449Z,20.09
2024-03-01T11:19:26.050Z,20.09
2024-03-01T11:20:20.700Z,20.09
2024-03-01T11:21:25.103Z,20.09
2024-03-01T11:22:26.951Z,20.10
2024-03-01T11:23:21.257Z,20.12
2024-03-01T11:24:20.865Z,20.13
2024-03-01T11:25:27.387Z,20.13
2024-03-01T11:26:25.522Z,20.15
2024-03-01T11:27:57.942Z,20.16
2024-03-01T11:28:15.744Z,20.18
2024-03-01T11:29:15.005Z,20.16
2024-03-01T11:30:14.041Z,20.20
2024-03-01T11:31:15.094Z,20.21
2024-03-01T11:32:18.436Z,20.21
2024-03-01T11:33:15.270Z,20.21
2024-03-01T11:34:14.653Z,20.24
2024-03-01T11:35:14.836Z,20.25
2024-03-01T11:36:15.563Z,20.30
2024-03-01T11:37:14.930Z,20.30
2024-03-01T11:38:15.713Z,20.30
2024-03-01T11:39:15.036Z,20.30
2024-03-01T11:40:15.218Z,20.31
2024-03-01T11:41:15.279Z,20.33
2024-03-01T11:42:15.555Z,20.34
2024-03-01T11:43:15.485Z,20.34
2024-03-01T11:44:15.853Z,20.33
2024-03-01T11:45:16.566Z,20.34
2024-03-01T11:46:15.883Z,20.31
2024-03-01T11:47:17.140Z,20.31
2024-03-01T11:48:16.198Z,20.31
2024-03-01T11:49:16.378Z,20.30
2024-03-01T11:50:16.433Z,20.33
2024-03-01T11:51:16.820Z,20.33
2024-03-01T11:52:16.825Z,20.33
2024-03-01T11:53:17.123Z,20.31
2024-03-01T11:54:17.772Z,20.31
2024-03-01T11:55:18.132Z,20.34
2024-03-01T11:56:17.313Z,20.34
2024-03-01T11:57:17.437Z,20.34
2024-03-01T11:58:17.554Z,20.34
2024-03-01T11:59:17.684Z,20.33
2024-03-01T12:00:19.542Z,20.35
2024-03-01T12:01:17.948Z,20.34
2024-03-01T12:02:18.174Z,20.35
2024-03-01T12:03:18.218Z,20.38
2024-03-01T12:04:19.276Z,20.38
2024-03-01T12:05:18.372Z,20.39
2024-03-01T12:06:21.511Z,20.41
2024-03-01T12:07:19.774Z,20.41
2024-03-01T12:08:18.824Z,20.42
2024-03-01T12:09:18.995Z,20.42
2024-03-01T12:10:20.349Z,20.41
2024-03-01T12:11:19.333Z,20.42
2024-03-01T12:12:20.274Z,20.43
2024-03-01T12:13:20.467Z,20.43
2024-03-01T12:14:21.537Z,20.43
2024-03-01T12:15:20.615Z,20.47
2024-03-01T12:16:25.827Z,20.47
2024-03-01T12:17:21.158Z,20.49
2024-03-01T12:18:21.942Z,20.49
2024-03-01T12:19:20.217Z,20.49
2024-03-01T12:20:20.255Z,20.49
2024-03-01T12:21:20.386Z,20.50
2024-03-01T12:22:20.906Z,20.51
2024-03-01T12:23:20.578Z,20.51
2024-03-01T12:24:20.994Z,20.51
2024-03-01T12:25:21.139Z,20.54
2024-03-01T12:26:21.025Z,20.54
2024-03-01T12:27:21.266Z,20.56
2024-03-01T12:28:21.291Z,20.56
2024-03-01T12:29:21.363Z,20.58
2024-03-01T12:30:21.507Z,20.61
2024-03-01T12:31:21.570Z,20.62
2024-03-01T12:32:21.690Z,20.62
2024-03-01T12:33:21.814Z,20.64
2024-03-01T12:34:21.951Z,20.65
2024-03-01T12:35:22.033Z,20.65
2024-03-01T12:36:25.011Z,20.65
2024-03-01T12:37:22.305Z,20.66
2024-03-01T12:38:22.419Z,20.66
2024-03-01T12:39:22.516Z,20.69
2024-03-01T12:40:22.693Z,20.68
2024-03-01T12:41:22.782Z,20.69
2024-03-01T12:42:22.859Z,20.69
2024-03-01T12:43:28.208Z,20.69
2024-03-01T12:44:24.131Z,20.69
2024-03-01T12:45:23.352Z,20.71
2024-03-01T12:46:23.479Z,20.69
2024-03-01T12:47:23.527Z,20.71
2024-03-01T12:48:23.742Z,20.74
2024-03-01T12:49:23.904Z,20.72
2024-03-01T12:50:23.910Z,20.74
2024-03-01T12:51:24.052Z,20.76
2024-03-01T12:52:24.176Z,20.76
2024-03-01T12:53:24.292Z,20.77
2024-03-01T12:54:24.444Z,20.76
2024-03-01T12:55:25.534Z,20.76
2024-03-01T12:56:24.614Z,20.76
2024-03-01T12:57:24.731Z,20.79
2024-03-01T12:58:25.008Z,20.80
2024-03-01T12:59:25.004Z,20.81
2024-03-01T13:00:25.247Z,20.81
2024-03-01T13:01:25.326Z,20.84
2024-03-01T13:02:25.424Z,20.83
2024-03-01T13:03:25.515Z,20.83
2024-03-01T13:04:25.684Z,20.84
2024-03-01T13:08:20.640Z,20.83
2024-03-01T13:09:33.877Z,20.84
2024-03-01T13:10:32.823Z,20.83
2024-03-01T13:11:33.061Z,20.83
2024-03-01T13:12:33.401Z,20.79
2024-03-01T13:13:35.036Z,20.80
2024-03-01T13:14:34.926Z,20.77
2024-03-01T13:15:34.613Z,20.77
2024-03-01T13:16:34.388Z,20.77
2024-03-01T13:17:37.496Z,20.76
2024-03-01T13:18:29.617Z,20.76
2024-03-01T13:19:34.242Z,20.76
2024-03-01T13:20:34.210Z,20.74
2024-03-01T13:21:35.308Z,20.74
2024-03-01T13:22:35.570Z,20.72
2024-03-01T13:23:39.197Z,20.72
2024-03-01T13:24:35.417Z,20.72
2024-03-01T13:25:35.639Z,20.71
2024-03-01T13:26:35.212Z,20.71
2024-03-01T13:27:35.820Z,20.71
2024-03-01T13:28:35.566Z,20.71
2024-03-01T13:32:27.839Z,20.79
2024-03-01T13:33:35.440Z,20.79
2024-03-01T13:34:28.210Z,20.80
2024-03-01T13:35:28.288Z,20.81
2024-03-01T13:36:28.374Z,20.80
2024-03-01T13:37:28.561Z,20.83
2024-03-01T13:38:28.635Z,20.83
2024-03-01T13:39:29.724Z,20.84
2024-03-01T13:40:28.944Z,20.86
2024-03-01T13:41:29.063Z,20.87
2024-03-01T13:42:32.775Z,20.90
2024-03-01T13:43:29.507Z,20.91
2024-03-01T13:44:29.504Z,20.91
2024-03-01T13:45:29.599Z,20.93
2024-03-01T13:46:29.748Z,20.91
2024-03-01T13:47:29.838Z,20.91
2024-03-01T13:48:30.058Z,20.91
2024-03-01T13:49:30.203Z,20.91
2024-03-01T13:50:30.235Z,20.96
2024-03-01T13:51:30.421Z,20.98
2024-03-01T13:52:30.617Z,20.95
2024-03-01T13:53:30.628Z,20.98
2024-03-01T13:54:30.735Z,21.01
2024-03-01T13:55:30.910Z,20.99
2024-03-01T13:56:31.047Z,20.99
2024-03-01T13:57:31.173Z,21.01
2024-03-01T13:58:31.359Z,21.01
2024-03-01T13:59:31.393Z,20.99
2024-03-01T14:00:31.540Z,21.01
2024-03-01T14:01:31.728Z,21.01
2024-03-01T14:02:31.770Z,21.01
2024-03-01T14:03:31.905Z,20.99
2024-03-01T14:04:32.097Z,20.99
2024-03-01T14:05:32.137Z,21.01
2024-03-01T14:06:32.242Z,21.01
2024-03-01T14:07:32.343Z,21.01
2024-03-01T14:08:32.504Z,21.04
2024-03-01T14:09:32.587Z,21.02
2024-03-01T14:10:32.812Z,21.04
2024-03-01T14:11:32.975Z,21.02
2024-03-01T14:12:33.002Z,21.04
2024-03-01T14:13:33.117Z,21.02
2024-03-01T14:14:33.183Z,21.02
2024-03-01T14:15:33.354Z,20.99
2024-03-01T14:16:33.498Z,20.99
2024-03-01T14:17:33.611Z,21.01
2024-03-01T14:18:33.704Z,20.99
2024-03-01T14:19:33.814Z,20.99
2024-03-01T14:20:33.935Z,20.99
2024-03-01T14:21:34.083Z,20.98
2024-03-01T14:22:34.176Z,20.99
2024-03-01T14:23:34.300Z,20.96
2024-03-01T14:24:34.452Z,20.95
2024-03-01T14:25:34.599Z,20.93
2024-03-01T14:26:34.700Z,20.93
2024-03-01T14:27:34.850Z,20.93
2024-03-01T14:28:34.970Z,20.91
2024-03-01T14:29:35.975Z,20.91
2024-03-01T14:30:35.157Z,20.93
2024-03-01T14:31:35.336Z,20.91
2024-03-01T14:32:35.539Z,20.91
2024-03-01T14:33:35.592Z,20.90
2024-03-01T14:34:35.740Z,20.93
2024-03-01T14:35:35.859Z,20.91
2024-03-01T14:36:35.935Z,20.90
2024-03-01T14:37:36.113Z,20.90
2024-03-01T14:38:36.268Z,20.89
2024-03-01T14:39:36.377Z,20.87
2024-03-01T14:40:36.480Z,20.89
2024-03-01T14:41:38.257Z,20.86
2024-03-01T14:42:36.701Z,20.84
2024-03-01T14:43:36.836Z,20.86
2024-03-01T14:44:37.864Z,20.84
2024-03-01T14:45:37.091Z,20.83
2024-03-01T14:46:37.410Z,20.80
2024-03-01T14:47:37.334Z,20.81
2024-03-01T14:48:37.401Z,20.80
2024-03-01T14:49:37.598Z,20.79
2024-03-01T14:50:37.634Z,20.80
2024-03-01T14:51:37.775Z,20.77
2024-03-01T14:52:38.761Z,20.77
2024-03-01T14:53:38.006Z,20.76
2024-03-01T14:54:38.130Z,20.76
2024-03-01T14:55:38.281Z,20.76
2024-03-01T14:56:38.368Z,20.74
2024-03-01T14:57:38.510Z,20.74
2024-03-01T14:58:38.758Z,20.72
2024-03-01T14:59:38.802Z,20.72
2024-03-01T15:00:38.922Z,20.71
2024-03-01T15:01:39.201Z,20.72
2024-03-01T15:02:39.226Z,20.71
2024-03-01T15:03:39.310Z,20.71
2024-03-01T15:04:41.820Z,20.69
2024-03-01T15:05:39.580Z,20.69
2024-03-01T15:06:39.721Z,20.69
2024-03-01T15:07:39.900Z,20.68
2024-03-01T15:08:40.047Z,20.68
2024-03-01T15:09:40.083Z,20.68
2024-03-01T15:10:42.229Z,20.68
2024-03-01T15:11:40.358Z,20.66
2024-03-01T15:12:40.729Z,20.65
2024-03-01T15:13:40.720Z,20.64
2024-03-01T15:14:40.711Z,20.64
2024-03-01T15:15:40.830Z,20.64
2024-03-01T15:16:45.060Z,20.62
2024-03-01T15:17:41.116Z,20.62
2024-03-01T15:18:41.171Z,20.61
2024-03-01T15:19:41.655Z,20.59
2024-03-01T15:20:41.469Z,20.58
2024-03-01T15:21:41.511Z,20.59
2024-03-01T15:22:44.014Z,20.59
2024-03-01T15:23:41.767Z,20.56
2024-03-01T15:24:41.958Z,20.54
2024-03-01T15:25:42.126Z,20.56
2024-03-01T15:26:42.132Z,20.54
2024-03-01T15:27:42.311Z,20.53
2024-03-01T15:28:43.872Z,20.51
2024-03-01T15:29:42.809Z,20.54
2024-03-01T15:30:42.642Z,20.50
2024-03-01T15:31:42.878Z,20.50
2024-03-01T15:32:43.939Z,20.50
2024-03-01T15:34:58.672Z,20.47
2024-03-01T15:35:58.784Z,20.47
2024-03-01T15:36:59.116Z,20.46
2024-03-01T15:37:59.050Z,20.46
2024-03-01T15:38:59.198Z,20.46
2024-03-01T15:39:59.368Z,20.46
2024-03-01T15:40:59.481Z,20.46
2024-03-01T15:41:59.571Z,20.42
2024-03-01T15:43:01.559Z,20.42
2024-03-01T15:43:59.732Z,20.41
2024-03-01T15:44:59.920Z,20.42
2024-03-01T15:46:00.078Z,20.41
2024-03-01T15:47:00.217Z,20.41
2024-03-01T15:48:00.278Z,20.39
2024-03-01T15:49:00.462Z,20.39
2024-03-01T15:50:00.549Z,20.35
2024-03-01T15:51:00.659Z,20.39
2024-03-01T15:52:00.864Z,20.38
2024-03-01T15:53:01.111Z,20.35
2024-03-01T15:54:01.075Z,20.35
2024-03-01T15:55:01.181Z,20.34
2024-03-01T15:56:01.314Z,20.33
2024-03-01T15:57:01.473Z,20.35
2024-03-01T15:58:01.737Z,20.34
2024-03-01T15:59:01.724Z,20.34
2024-03-01T16:00:01.907Z,20.33
2024-03-01T16:01:02.063Z,20.33
2024-03-01T16:02:02.183Z,20.31
2024-03-01T16:03:02.264Z,20.31
2024-03-01T16:04:02.434Z,20.31
2024-03-01T16:05:02.509Z,20.30
2024-03-01T16:06:02.588Z,20.30
2024-03-01T16:07:02.796Z,20.28
2024-03-01T16:08:02.893Z,20.27
2024-03-01T16:09:03.016Z,20.27
2024-03-01T16:10:03.110Z,20.27
2024-03-01T16:11:03.304Z,20.27
2024-03-01T16:12:03.354Z,20.27
2024-03-01T16:13:03.540Z,20.25
2024-03-01T16:14:03.610Z,20.25
2024-03-01T16:15:03.756Z,20.27
2024-03-01T16:16:03.967Z,20.27
2024-03-01T16:17:04.001Z,20.24
2024-03-01T16:29:03.223Z,19.98
2024-03-01T16:30:03.354Z,19.93
2024-03-01T16:31:03.699Z,19.93
2024-03-01T16:32:03.621Z,19.94
2024-03-01T16:33:03.901Z,19.94
2024-03-01T16:34:03.903Z,19.94
2024-03-01T16:35:04.069Z,19.97
2024-03-01T16:36:04.218Z,19.98
2024-03-01T16:37:04.325Z,20.00
2024-03-01T16:38:04.409Z,20.03
2024-03-01T16:39:04.524Z,20.02
2024-03-01T16:40:04.690Z,20.03
2024-03-01T16:41:04.774Z,20.05
2024-03-01T16:42:04.870Z,20.05
2024-03-01T16:43:05.044Z,20.06
2024-03-01T16:44:05.126Z,20.06
2024-03-01T16:45:06.184Z,20.08
2024-03-01T16:46:05.397Z,20.08
2024-03-01T16:47:05.518Z,20.08
2024-03-01T16:48:05.651Z,20.05
2024-03-01T16:49:05.937Z,20.06
2024-03-01T16:50:06.591Z,20.08
2024-03-01T16:51:05.975Z,20.05
2024-03-01T16:52:06.165Z,20.06
2024-03-01T16:53:06.250Z,20.06
2024-03-01T16:54:06.366Z,20.06
2024-03-01T16:55:06.561Z,20.05
2024-03-01T16:56:06.747Z,20.05
2024-03-01T16:57:06.747Z,20.03
2024-03-01T16:58:06.901Z,20.03
2024-03-01T16:59:07.045Z,20.03
2024-03-01T17:00:07.126Z,20.03
2024-03-01T17:01:07.262Z,20.03
2024-03-01T17:02:07.386Z,20.03
2024-03-01T17:03:07.595Z,20.02
2024-03-01T17:04:07.708Z,20.02
2024-03-01T17:05:07.691Z,20.02
2024-03-01T17:06:07.860Z,20.02
2024-03-01T17:07:08.007Z,20.00
2024-03-01T17:08:08.166Z,20.00
2024-03-01T17:09:08.268Z,19.98
2024-03-01T17:10:08.405Z,20.00
2024-03-01T17:11:08.642Z,19.98
2024-03-01T17:12:08.624Z,19.97
2024-03-01T17:13:08.815Z,19.95
2024-03-01T17:14:08.889Z,19.95
2024-03-01T17:15:09.055Z,19.97
2024-03-01T17:16:09.264Z,19.97
2024-03-01T17:17:09.332Z,19.95
2024-03-01T17:18:09.485Z,19.94
2024-03-01T17:19:12.290Z,19.94
2024-03-01T17:20:09.708Z,19.94
2024-03-01T17:21:09.819Z,19.93
2024-03-01T17:22:10.024Z,19.91
2024-03-01T17:23:10.093Z,19.91
2024-03-01T17:24:10.170Z,19.91
2024-03-01T17:25:10.352Z,19.93
2024-03-01T17:26:10.435Z,19.91
2024-03-01T17:27:10.636Z,19.91
2024-03-01T17:28:10.771Z,19.91
2024-03-01T17:29:10.827Z,19.90
2024-03-01T17:30:10.974Z,19.90
2024-03-01T17:31:11.151Z,19.90
2024-03-01T17:32:11.213Z,19.88
2024-03-01T17:33:11.440Z,19.87
2024-03-01T17:34:11.509Z,19.88
2024-03-01T17:35:11.600Z,19.87
2024-03-01T17:36:11.684Z,19.87
2024-03-01T17:37:11.879Z,19.87
2024-03-01T17:38:11.977Z,19.86
2024-03-01T17:39:12.153Z,19.86
2024-03-01T17:40:12.343Z,19.86
2024-03-01T17:41:12.369Z,19.84
2024-03-01T17:42:12.473Z,19.84
2024-03-01T17:43:12.666Z,19.83
2024-03-01T17:44:12.686Z,19.84
2024-03-01T17:45:12.874Z,19.84
2024-03-01T17:46:13.041Z,19.83
2024-03-01T17:47:13.108Z,19.83
2024-03-01T17:48:13.298Z,19.83
2024-03-01T17:49:13.402Z,19.80
2024-03-01T17:50:13.565Z,19.83
2024-03-01T17:51:13.681Z,19.80
2024-03-01T17:52:13.785Z,19.80
2024-03-01T17:53:13.973Z,19.80
2024-03-01T17:54:14.093Z,19.80
2024-03-01T17:55:14.352Z,19.80
2024-03-01T17:56:14.421Z,19.79
2024-03-01T17:57:14.526Z,19.79
2024-03-01T17:58:14.687Z,19.78
2024-03-01T17:59:14.804Z,19.79
2024-03-01T18:00:15.002Z,19.78
2024-03-01T18:01:15.137Z,19.78
2024-03-01T18:02:15.167Z,19.76
2024-03-01T18:03:15.242Z,19.78
2024-03-01T18:04:15.535Z,19.76
2024-03-01T18:05:15.537Z,19.76
2024-03-01T18:06:15.584Z,19.76
2024-03-01T18:07:15.727Z,19.75
2024-03-01T18:09:31.438Z,19.75
2024-03-01T18:10:31.610Z,19.73
2024-03-01T18:11:31.757Z,19.73
2024-03-01T18:12:31.817Z,19.75
2024-03-01T18:13:32.053Z,19.76
2024-03-01T18:14:32.112Z,19.73
2024-03-01T18:15:33.172Z,19.73
2024-03-01T18:16:32.393Z,19.72
2024-03-01T18:17:32.569Z,19.73